Dominia — ICFW — position and weather

sailwx.info

Track history (hours):
 
Tides and Currents Weather Stations Pressure Air Temp Water Temp Dewpoint Dewpoint Depression Visibility Wind Speed Wind Dir Waves Ship Positions

Dominia

Last reported at 2014-Aug-22 19:33 UTC. Time now 2014-Aug-22 19:44 UTC.
Position N 34°18' E 013°47'.

Length 176 m; draft 8.5 m.

Type: Ship (hazmat cat A). MMSI: 247273400.

Date/timePositionNaut miles runAvg speedWind from/ knotsBaromVisibWave heightAir tempDewpointWater temp
2014-Aug-22 19:33N 34°18' E 013°47'1313.0
2014-Aug-22 18:33N 34°06' E 013°40'1912.8
2014-Aug-22 17:05N 33°50' E 013°30'712.6
2014-Aug-22 16:33N 33°44' E 013°27'1512.5
2014-Aug-22 15:21N 33°29' E 013°22'1012.8
2014-Aug-22 14:33N 33°19' E 013°23'6 6.3
2014-Aug-22 13:33N 33°13' E 013°23'1 1.0
2014-Aug-22 12:33N 33°13' E 013°22'2 2.0
2014-Aug-22 11:33N 33°14' E 013°20'41 3.2
2014-Aug-21 22:28N 32°49' E 012°40'0 0.0
2014-Aug-21 21:27N 32°49' E 012°40'0 0.0
2014-Aug-21 19:33N 32°49' E 012°40'0 0.0
2014-Aug-21 18:30N 32°49' E 012°40'0 0.1
2014-Aug-21 17:33N 32°49' E 012°40'1 0.7
2014-Aug-21 16:26N 32°49' E 012°41'1 0.9
2014-Aug-21 15:33N 32°48' E 012°41'1 0.7
2014-Aug-21 14:29N 32°48' E 012°42'0 0.1
2014-Aug-21 13:11N 32°48' E 012°42'0 0.0
2014-Aug-21 12:32N 32°48' E 012°42'0 0.0
2014-Aug-21 11:05N 32°48' E 012°42'0 0.0
2014-Aug-21 10:32N 32°48' E 012°42'0 0.0
2014-Aug-21 09:32N 32°48' E 012°42'0 0.0
2014-Aug-21 08:32N 32°48' E 012°42'0 0.0
2014-Aug-21 07:11N 32°48' E 012°42'0 0.0
2014-Aug-21 06:32N 32°48' E 012°42'0 0.0
2014-Aug-21 05:32N 32°48' E 012°42'0 0.0
2014-Aug-21 04:32N 32°48' E 012°42'0 0.0
2014-Aug-21 03:05N 32°48' E 012°42'0 0.0
2014-Aug-21 02:26N 32°48' E 012°42'0 0.0
2014-Aug-21 00:32N 32°48' E 012°42'0 0.0
2014-Aug-20 23:29N 32°48' E 012°42'0 0.0
2014-Aug-20 22:29N 32°48' E 012°42'0 0.0
2014-Aug-20 20:14N 32°48' E 012°42'0 0.0
2014-Aug-20 19:32N 32°48' E 012°42'0 0.0
2014-Aug-20 18:32N 32°48' E 012°42'0 0.0
2014-Aug-20 17:17N 32°48' E 012°42'0 0.0
2014-Aug-20 16:32N 32°48' E 012°42'0 0.0
2014-Aug-20 15:32N 32°48' E 012°42'0 0.0
2014-Aug-20 14:32N 32°48' E 012°42'0 0.0
2014-Aug-20 13:32N 32°48' E 012°42'0 0.0
2014-Aug-20 12:32N 32°48' E 012°42'0 0.0
2014-Aug-20 11:14N 32°48' E 012°42'0 0.0
2014-Aug-20 10:32N 32°48' E 012°42'0 0.0
2014-Aug-20 09:32N 32°48' E 012°42'0 0.0
2014-Aug-20 08:23N 32°48' E 012°42'0 0.0
2014-Aug-20 07:33N 32°48' E 012°42'1 1.0
2014-Aug-20 06:33N 32°49' E 012°41'1 0.5
2014-Aug-20 05:09N 32°49' E 012°40'0 0.0
2014-Aug-20 04:27N 32°49' E 012°40'0 0.0
2014-Aug-20 01:24N 32°49' E 012°40'0 0.0
2014-Aug-19 21:18N 32°49' E 012°40'0 0.0
2014-Aug-19 20:33N 32°49' E 012°40'0 0.0
2014-Aug-19 19:12N 32°49' E 012°40'0 0.0
2014-Aug-19 18:33N 32°49' E 012°40'0 0.0
2014-Aug-19 17:33N 32°49' E 012°40'0 0.0
2014-Aug-19 16:33N 32°49' E 012°40'0 0.0
2014-Aug-19 15:33N 32°49' E 012°40'0 0.0
2014-Aug-19 14:30N 32°49' E 012°40'0 0.0
2014-Aug-19 13:33N 32°49' E 012°40'0 0.0
2014-Aug-19 12:33N 32°49' E 012°40'0 0.0
2014-Aug-19 11:06N 32°49' E 012°40'0 0.0
2014-Aug-19 08:24N 32°49' E 012°40'0 0.0
2014-Aug-19 07:33N 32°49' E 012°40'0 0.0
2014-Aug-19 01:30N 32°49' E 012°40'0 0.0
2014-Aug-18 22:27N 32°49' E 012°40'0 0.0
2014-Aug-18 21:27N 32°49' E 012°40'0 0.0
2014-Aug-18 20:27N 32°49' E 012°40'0 0.0
2014-Aug-18 19:33N 32°49' E 012°40'0 0.0
2014-Aug-18 18:33N 32°49' E 012°40'0 0.0
2014-Aug-18 17:33N 32°49' E 012°40'0 0.1
2014-Aug-18 16:33N 32°49' E 012°40'0 0.1
2014-Aug-18 15:30N 32°49' E 012°40'0 0.0
2014-Aug-18 14:30N 32°49' E 012°40'0 0.0
2014-Aug-18 13:27N 32°49' E 012°40'0 0.0
2014-Aug-18 12:33N 32°49' E 012°40'0 0.0
2014-Aug-18 11:33N 32°49' E 012°40'0 0.0
2014-Aug-17 18:33N 32°49' E 012°40'0 0.0
2014-Aug-17 17:18N 32°49' E 012°40'0 0.0
2014-Aug-17 16:30N 32°49' E 012°40'0 0.0
2014-Aug-17 15:33N 32°49' E 012°40'0 0.0
2014-Aug-17 13:15N 32°49' E 012°40'0 0.0
2014-Aug-17 12:21N 32°49' E 012°40'0 0.0
2014-Aug-17 09:33N 32°49' E 012°40'0 0.0
2014-Aug-17 06:33N 32°49' E 012°40'0 0.1
2014-Aug-17 05:24N 32°49' E 012°40'0 0.0
2014-Aug-16 20:18N 32°49' E 012°40'0 0.0
2014-Aug-16 19:33N 32°49' E 012°40'0 0.0
2014-Aug-16 18:30N 32°49' E 012°40'0 0.0
2014-Aug-16 17:33N 32°49' E 012°40'0 0.1
2014-Aug-16 16:33N 32°49' E 012°40'0 0.0
2014-Aug-16 14:33N 32°49' E 012°40'0 0.0
2014-Aug-16 13:33N 32°49' E 012°40'0 0.0
2014-Aug-16 12:33N 32°49' E 012°40'0 0.0
2014-Aug-16 11:30N 32°49' E 012°40'0 0.0
2014-Aug-16 10:27N 32°49' E 012°40'0 0.0
2014-Aug-16 09:21N 32°49' E 012°40'0 0.0
2014-Aug-16 08:33N 32°49' E 012°40'0 0.1
2014-Aug-16 07:33N 32°49' E 012°40'8211.4
2014-Aug-16 00:23N 34°00' E 013°28'1113.2
2014-Aug-15 23:33N 34°10' E 013°35'1313.1
2014-Aug-15 22:33N 34°21' E 013°42'1313.1
2014-Aug-15 21:33N 34°32' E 013°50'1312.9
2014-Aug-15 20:33N 34°44' E 013°58'1313.0
2014-Aug-15 19:33N 34°55' E 014°06'1313.1
2014-Aug-15 18:33N 35°07' E 014°14'1312.8
2014-Aug-15 17:33N 35°17' E 014°22'1312.7
2014-Aug-15 16:33N 35°28' E 014°30'1312.9
2014-Aug-15 15:33N 35°40' E 014°37'1610.9
2014-Aug-15 14:05N 35°56' E 014°39'1 2.2
2014-Aug-15 13:33N 35°56' E 014°37'2 2.4
2014-Aug-15 12:33N 35°56' E 014°40'7 7.2
2014-Aug-15 11:33N 35°55' E 014°49'4 3.5
2014-Aug-15 10:31N 35°53' E 014°53'0 0.1
2014-Aug-15 09:31N 35°53' E 014°53'0 0.1
2014-Aug-15 08:31N 35°53' E 014°53'0 0.0
2014-Aug-15 05:28N 35°53' E 014°53'0 0.0
2014-Aug-15 04:28N 35°53' E 014°53'0 0.0
2014-Aug-15 03:31N 35°53' E 014°53'0 0.0
2014-Aug-15 02:31N 35°53' E 014°53'0 0.0
2014-Aug-15 01:25N 35°53' E 014°53'0 0.0
2014-Aug-15 00:31N 35°53' E 014°53'0 0.0
2014-Aug-14 23:31N 35°53' E 014°53'0 0.0
2014-Aug-14 22:22N 35°53' E 014°53'0 0.0
2014-Aug-14 21:31N 35°53' E 014°53'0 0.0
2014-Aug-14 20:31N 35°53' E 014°53'0 0.0
2014-Aug-14 19:31N 35°53' E 014°53'0 0.0
2014-Aug-14 18:31N 35°53' E 014°53'0 0.1
2014-Aug-14 17:25N 35°53' E 014°53'0 0.0
2014-Aug-14 16:31N 35°53' E 014°53'0 0.0
2014-Aug-14 15:31N 35°53' E 014°53'0 0.0
2014-Aug-14 14:31N 35°53' E 014°53'0 0.1
2014-Aug-14 13:22N 35°53' E 014°53'2 2.9
2014-Aug-14 12:33N 35°53' E 014°56'3 2.8
2014-Aug-14 11:33N 35°52' E 014°59'4 4.0
2014-Aug-14 10:34N 35°53' E 014°54'5 5.1
2014-Aug-14 09:33N 35°55' E 014°48'5 5.1
2014-Aug-14 08:33N 35°57' E 014°43'3 2.8
2014-Aug-14 07:33N 35°58' E 014°39'39311.1
2014-Aug-12 20:11N 36°23' E 022°45'  
Track history (hours):
 
Tides and Currents Weather Stations Pressure Air Temp Water Temp Dewpoint Dewpoint Depression Visibility Wind Speed Wind Dir Waves Ship Positions

Dominia

Last reported at 2014-Aug-22 19:33 UTC. Time now 2014-Aug-22 19:44 UTC.
Position N 34°18' E 013°47'.

Length 176 m; draft 8.5 m.

Type: Ship (hazmat cat A). MMSI: 247273400.

Date/timePositionNaut miles runAvg speedWind from/ knotsBaromVisibWave heightAir tempDewpointWater temp
2014-Aug-22 19:33N 34°18' E 013°47'1313.0
2014-Aug-22 18:33N 34°06' E 013°40'1912.8
2014-Aug-22 17:05N 33°50' E 013°30'712.6
2014-Aug-22 16:33N 33°44' E 013°27'1512.5
2014-Aug-22 15:21N 33°29' E 013°22'1012.8
2014-Aug-22 14:33N 33°19' E 013°23'6 6.3
2014-Aug-22 13:33N 33°13' E 013°23'1 1.0
2014-Aug-22 12:33N 33°13' E 013°22'2 2.0
2014-Aug-22 11:33N 33°14' E 013°20'41 3.2
2014-Aug-21 22:28N 32°49' E 012°40'0 0.0
2014-Aug-21 21:27N 32°49' E 012°40'0 0.0
2014-Aug-21 19:33N 32°49' E 012°40'0 0.0
2014-Aug-21 18:30N 32°49' E 012°40'0 0.1
2014-Aug-21 17:33N 32°49' E 012°40'1 0.7
2014-Aug-21 16:26N 32°49' E 012°41'1 0.9
2014-Aug-21 15:33N 32°48' E 012°41'1 0.7
2014-Aug-21 14:29N 32°48' E 012°42'0 0.1
2014-Aug-21 13:11N 32°48' E 012°42'0 0.0
2014-Aug-21 12:32N 32°48' E 012°42'0 0.0
2014-Aug-21 11:05N 32°48' E 012°42'0 0.0
2014-Aug-21 10:32N 32°48' E 012°42'0 0.0
2014-Aug-21 09:32N 32°48' E 012°42'0 0.0
2014-Aug-21 08:32N 32°48' E 012°42'0 0.0
2014-Aug-21 07:11N 32°48' E 012°42'0 0.0
2014-Aug-21 06:32N 32°48' E 012°42'0 0.0
2014-Aug-21 05:32N 32°48' E 012°42'0 0.0
2014-Aug-21 04:32N 32°48' E 012°42'0 0.0
2014-Aug-21 03:05N 32°48' E 012°42'0 0.0
2014-Aug-21 02:26N 32°48' E 012°42'0 0.0
2014-Aug-21 00:32N 32°48' E 012°42'0 0.0
2014-Aug-20 23:29N 32°48' E 012°42'0 0.0
2014-Aug-20 22:29N 32°48' E 012°42'0 0.0
2014-Aug-20 20:14N 32°48' E 012°42'0 0.0
2014-Aug-20 19:32N 32°48' E 012°42'0 0.0
2014-Aug-20 18:32N 32°48' E 012°42'0 0.0
2014-Aug-20 17:17N 32°48' E 012°42'0 0.0
2014-Aug-20 16:32N 32°48' E 012°42'0 0.0
2014-Aug-20 15:32N 32°48' E 012°42'0 0.0
2014-Aug-20 14:32N 32°48' E 012°42'0 0.0
2014-Aug-20 13:32N 32°48' E 012°42'0 0.0
2014-Aug-20 12:32N 32°48' E 012°42'0 0.0
2014-Aug-20 11:14N 32°48' E 012°42'0 0.0
2014-Aug-20 10:32N 32°48' E 012°42'0 0.0
2014-Aug-20 09:32N 32°48' E 012°42'0 0.0
2014-Aug-20 08:23N 32°48' E 012°42'0 0.0
2014-Aug-20 07:33N 32°48' E 012°42'1 1.0
2014-Aug-20 06:33N 32°49' E 012°41'1 0.5
2014-Aug-20 05:09N 32°49' E 012°40'0 0.0
2014-Aug-20 04:27N 32°49' E 012°40'0 0.0
2014-Aug-20 01:24N 32°49' E 012°40'0 0.0
2014-Aug-19 21:18N 32°49' E 012°40'0 0.0
2014-Aug-19 20:33N 32°49' E 012°40'0 0.0
2014-Aug-19 19:12N 32°49' E 012°40'0 0.0
2014-Aug-19 18:33N 32°49' E 012°40'0 0.0
2014-Aug-19 17:33N 32°49' E 012°40'0 0.0
2014-Aug-19 16:33N 32°49' E 012°40'0 0.0
2014-Aug-19 15:33N 32°49' E 012°40'0 0.0
2014-Aug-19 14:30N 32°49' E 012°40'0 0.0
2014-Aug-19 13:33N 32°49' E 012°40'0 0.0
2014-Aug-19 12:33N 32°49' E 012°40'0 0.0
2014-Aug-19 11:06N 32°49' E 012°40'0 0.0
2014-Aug-19 08:24N 32°49' E 012°40'0 0.0
2014-Aug-19 07:33N 32°49' E 012°40'0 0.0
2014-Aug-19 01:30N 32°49' E 012°40'0 0.0
2014-Aug-18 22:27N 32°49' E 012°40'0 0.0
2014-Aug-18 21:27N 32°49' E 012°40'0 0.0
2014-Aug-18 20:27N 32°49' E 012°40'0 0.0
2014-Aug-18 19:33N 32°49' E 012°40'0 0.0
2014-Aug-18 18:33N 32°49' E 012°40'0 0.0
2014-Aug-18 17:33N 32°49' E 012°40'0 0.1
2014-Aug-18 16:33N 32°49' E 012°40'0 0.1
2014-Aug-18 15:30N 32°49' E 012°40'0 0.0
2014-Aug-18 14:30N 32°49' E 012°40'0 0.0
2014-Aug-18 13:27N 32°49' E 012°40'0 0.0
2014-Aug-18 12:33N 32°49' E 012°40'0 0.0
2014-Aug-18 11:33N 32°49' E 012°40'0 0.0
2014-Aug-17 18:33N 32°49' E 012°40'0 0.0
2014-Aug-17 17:18N 32°49' E 012°40'0 0.0
2014-Aug-17 16:30N 32°49' E 012°40'0 0.0
2014-Aug-17 15:33N 32°49' E 012°40'0 0.0
2014-Aug-17 13:15N 32°49' E 012°40'0 0.0
2014-Aug-17 12:21N 32°49' E 012°40'0 0.0
2014-Aug-17 09:33N 32°49' E 012°40'0 0.0
2014-Aug-17 06:33N 32°49' E 012°40'0 0.1
2014-Aug-17 05:24N 32°49' E 012°40'0 0.0
2014-Aug-16 20:18N 32°49' E 012°40'0 0.0
2014-Aug-16 19:33N 32°49' E 012°40'0 0.0
2014-Aug-16 18:30N 32°49' E 012°40'0 0.0
2014-Aug-16 17:33N 32°49' E 012°40'0 0.1
2014-Aug-16 16:33N 32°49' E 012°40'0 0.0
2014-Aug-16 14:33N 32°49' E 012°40'0 0.0
2014-Aug-16 13:33N 32°49' E 012°40'0 0.0
2014-Aug-16 12:33N 32°49' E 012°40'0 0.0
2014-Aug-16 11:30N 32°49' E 012°40'0 0.0
2014-Aug-16 10:27N 32°49' E 012°40'0 0.0
2014-Aug-16 09:21N 32°49' E 012°40'0 0.0
2014-Aug-16 08:33N 32°49' E 012°40'0 0.1
2014-Aug-16 07:33N 32°49' E 012°40'8211.4
2014-Aug-16 00:23N 34°00' E 013°28'1113.2
2014-Aug-15 23:33N 34°10' E 013°35'1313.1
2014-Aug-15 22:33N 34°21' E 013°42'1313.1
2014-Aug-15 21:33N 34°32' E 013°50'1312.9
2014-Aug-15 20:33N 34°44' E 013°58'1313.0
2014-Aug-15 19:33N 34°55' E 014°06'1313.1
2014-Aug-15 18:33N 35°07' E 014°14'1312.8
2014-Aug-15 17:33N 35°17' E 014°22'1312.7
2014-Aug-15 16:33N 35°28' E 014°30'1312.9
2014-Aug-15 15:33N 35°40' E 014°37'1610.9
2014-Aug-15 14:05N 35°56' E 014°39'1 2.2
2014-Aug-15 13:33N 35°56' E 014°37'2 2.4
2014-Aug-15 12:33N 35°56' E 014°40'7 7.2
2014-Aug-15 11:33N 35°55' E 014°49'4 3.5
2014-Aug-15 10:31N 35°53' E 014°53'0 0.1
2014-Aug-15 09:31N 35°53' E 014°53'0 0.1
2014-Aug-15 08:31N 35°53' E 014°53'0 0.0
2014-Aug-15 05:28N 35°53' E 014°53'0 0.0
2014-Aug-15 04:28N 35°53' E 014°53'0 0.0
2014-Aug-15 03:31N 35°53' E 014°53'0 0.0
2014-Aug-15 02:31N 35°53' E 014°53'0 0.0
2014-Aug-15 01:25N 35°53' E 014°53'0 0.0
2014-Aug-15 00:31N 35°53' E 014°53'0 0.0
2014-Aug-14 23:31N 35°53' E 014°53'0 0.0
2014-Aug-14 22:22N 35°53' E 014°53'0 0.0
2014-Aug-14 21:31N 35°53' E 014°53'0 0.0
2014-Aug-14 20:31N 35°53' E 014°53'0 0.0
2014-Aug-14 19:31N 35°53' E 014°53'0 0.0
2014-Aug-14 18:31N 35°53' E 014°53'0 0.1
2014-Aug-14 17:25N 35°53' E 014°53'0 0.0
2014-Aug-14 16:31N 35°53' E 014°53'0 0.0
2014-Aug-14 15:31N 35°53' E 014°53'0 0.0
2014-Aug-14 14:31N 35°53' E 014°53'0 0.1
2014-Aug-14 13:22N 35°53' E 014°53'2 2.9
2014-Aug-14 12:33N 35°53' E 014°56'3 2.8
2014-Aug-14 11:33N 35°52' E 014°59'4 4.0
2014-Aug-14 10:34N 35°53' E 014°54'5 5.1
2014-Aug-14 09:33N 35°55' E 014°48'5 5.1
2014-Aug-14 08:33N 35°57' E 014°43'3 2.8
2014-Aug-14 07:33N 35°58' E 014°39'39311.1
2014-Aug-12 20:11N 36°23' E 022°45'  

Dump ship's entire track history